To NAV CANADA Home Page Login to a new session Search on AWWS site Feedback and Comments Disclaimer Vers la page française équivalente Tips FAQ What's new on the site To the Forecasts and Observations / NOTAM section To "File a Flight Plan" website Publications and other links Update of the User's profile FIC Telephone Numbers My Weather Data Folder Route Weather Data Regional Weather Data Local Weather Data To the Forecasts and Observations / NOTAM section
Request Generated 04/18/2014 at 08:02:56 UTC . Weather information available at that time is displayed.

METAR/TAF

CARTWRIGHT/NL    

METAR CWCA 180800Z 23010G16KT 15SM SKC M07/M16 A3050 RMK SLP330=
METAR CWCA 180700Z 23010KT 15SM SKC M07/M16 A3050 RMK SLP331=
METAR CWCA 180600Z 20007KT 15SM SKC M07/M15 A3052 RMK SLP336=

TAF CYCA 180738Z 1808/1820 ADVISORY OFFSITE 23012KT P6SM SKC
BECMG 1813/1815 23015G25KT
FM181900 23012G22KT P6SM BKN040
RMK NXT FCST BY 181400Z=
Your time UTC time
Weather data provided by Environment Canada and NAV CANADA